createdAt,value
2016-07-11T13:56:06.548Z,68
2016-07-11T13:56:40.805Z,68
2016-07-11T14:06:50.486Z,2956
2016-07-11T14:07:56.272Z,3420
2016-07-11T14:08:44.251Z,3408
2016-07-11T14:09:51.460Z,3396
2016-07-11T14:10:55.413Z,3388
2016-07-11T14:11:44.791Z,3376
2016-07-11T14:12:48.816Z,3364
2016-07-11T14:13:43.195Z,3352
2016-07-11T14:14:40.132Z,3344
2016-07-11T14:15:55.598Z,3332
2016-07-11T14:16:40.197Z,3328
2016-07-11T14:17:44.507Z,3312
2016-07-11T14:18:43.167Z,3300
2016-07-11T14:19:40.990Z,3288
2016-07-11T14:20:45.382Z,3276
2016-07-11T14:21:45.808Z,3276
2016-07-11T14:22:40.028Z,3280
2016-07-11T14:23:39.769Z,3280
2016-07-11T14:24:39.796Z,3284
2016-07-11T14:25:44.218Z,3288
2016-07-11T14:26:39.563Z,3280
2016-07-11T14:27:40.146Z,3276
2016-07-11T14:28:43.057Z,3276
2016-07-11T14:30:49.867Z,3280
2016-07-11T14:31:49.273Z,3280
2016-07-11T14:32:49.377Z,3276
2016-07-11T14:33:50.320Z,3280
2016-07-11T14:34:48.756Z,3284
2016-07-11T14:35:48.960Z,3284
2016-07-11T14:37:41.426Z,3276
2016-07-11T14:37:51.402Z,3272
2016-07-11T14:38:51.700Z,3260
2016-07-11T14:39:51.671Z,3252
2016-07-11T14:40:51.751Z,3240
2016-07-11T14:41:55.081Z,3232
2016-07-11T14:42:50.985Z,3224
2016-07-11T14:43:55.194Z,3220
2016-07-11T14:44:51.036Z,3220
2016-07-11T14:45:51.036Z,3216
2016-07-11T14:46:51.078Z,3208
2016-07-11T14:47:51.718Z,3200
2016-07-11T14:48:51.192Z,3200
2016-07-11T14:49:53.300Z,3204
2016-07-11T14:50:51.097Z,3204
2016-07-11T14:51:51.678Z,3200
2016-07-11T14:52:51.880Z,3204
2016-07-11T14:53:51.792Z,3200
2016-07-11T14:54:51.177Z,3192
2016-07-11T14:55:51.232Z,3196
2016-07-11T14:56:51.933Z,3200
2016-07-11T14:57:51.180Z,3208
2016-07-11T14:58:51.211Z,3212
2016-07-11T14:59:51.249Z,3220
2016-07-11T15:00:51.907Z,3220
2016-07-11T15:01:51.270Z,3216
2016-07-11T15:02:52.067Z,3212
2016-07-11T15:03:51.364Z,3216
2016-07-11T15:04:51.312Z,3216
2016-07-11T15:05:52.080Z,3212
2016-07-11T15:06:51.401Z,3196
2016-07-11T15:07:51.378Z,3188
2016-07-11T15:08:51.368Z,3180
2016-07-11T15:09:51.390Z,3152
2016-07-11T15:10:51.412Z,3128
2016-07-11T15:11:51.366Z,3108
2016-07-11T15:12:51.312Z,3100
2016-07-11T15:13:51.470Z,3096
2016-07-11T15:14:52.148Z,3088
2016-07-11T15:15:51.459Z,3080
2016-07-11T15:16:52.229Z,3080
2016-07-11T15:17:51.498Z,3080
2016-07-11T15:18:51.411Z,3080
2016-07-11T15:19:51.484Z,3076
2016-07-11T15:20:51.751Z,3080
2016-07-11T15:21:51.527Z,3072
2016-07-11T15:22:52.648Z,3072
2016-07-11T15:23:51.586Z,3068
2016-07-11T15:24:52.343Z,3068
2016-07-11T15:25:51.540Z,3068
2016-07-11T15:26:51.632Z,3072
2016-07-11T15:27:52.390Z,3068
2016-07-11T15:28:51.567Z,3056
2016-07-11T15:29:51.654Z,3040
2016-07-11T15:30:52.356Z,3028
2016-07-11T15:31:52.435Z,3012
2016-07-11T15:32:52.444Z,3000
2016-07-11T15:33:51.698Z,2988
2016-07-11T15:34:51.745Z,2964
2016-07-11T15:35:51.777Z,2944
2016-07-11T15:36:51.751Z,2924
2016-07-11T15:37:51.759Z,2908
2016-07-11T15:38:51.773Z,2900
2016-07-11T15:39:51.790Z,2892
2016-07-11T15:40:51.805Z,2892
2016-07-11T15:41:51.770Z,2896
2016-07-11T15:42:51.732Z,2908
2016-07-11T15:43:52.569Z,2916
2016-07-11T15:44:51.760Z,2916
2016-07-11T15:45:52.548Z,2916
2016-07-11T15:46:53.375Z,2912
2016-07-11T15:47:51.915Z,2912
2016-07-11T15:48:51.921Z,2900
2016-07-11T15:49:52.615Z,2892
2016-07-11T15:50:52.696Z,2884
2016-07-11T15:51:52.684Z,2872
2016-07-11T15:52:51.929Z,2868
2016-07-11T15:53:51.947Z,2852
2016-07-11T15:54:52.147Z,2840
2016-07-11T15:55:52.415Z,2832
2016-07-11T15:56:52.624Z,2824
2016-07-11T15:57:52.584Z,2816
2016-07-11T15:58:52.485Z,2804
2016-07-11T15:59:52.609Z,2796
2016-07-11T16:00:52.562Z,2784
2016-07-11T16:01:53.098Z,2772
2016-07-11T16:02:53.136Z,2764
2016-07-11T16:03:53.085Z,2760
2016-07-11T16:04:52.814Z,2752
2016-07-11T16:05:52.705Z,2744
2016-07-11T16:06:52.115Z,2732
2016-07-11T17:24:32.059Z,2056
2016-07-11T17:25:32.051Z,2048
2016-07-11T17:26:32.237Z,2032
2016-07-11T17:27:32.695Z,2016
2016-07-11T17:28:40.390Z,2004
2016-07-11T17:29:35.900Z,1996
2016-07-11T17:30:37.335Z,1988
2016-07-11T17:31:32.270Z,1976
2016-07-11T17:32:31.989Z,1956
2016-07-11T17:33:32.042Z,1944
2016-07-11T17:34:32.000Z,1928
2016-07-11T17:35:32.505Z,1912
2016-07-11T17:36:32.832Z,1896
2016-07-11T17:37:32.694Z,1880
2016-07-11T17:38:32.522Z,1864
2016-07-11T17:39:32.565Z,1848
2016-07-11T17:40:32.770Z,1840
2016-07-11T17:41:33.266Z,1832
2016-07-11T17:42:32.336Z,1816
2016-07-11T17:43:32.902Z,1808
2016-07-11T17:44:34.344Z,1792
2016-07-11T17:45:32.835Z,1780
2016-07-11T17:46:33.703Z,1760
2016-07-11T17:47:32.692Z,1744
2016-07-11T17:48:32.767Z,1728
2016-07-11T17:49:34.245Z,1708
2016-07-11T17:50:33.001Z,1688
2016-07-11T17:51:32.879Z,1672
2016-07-11T17:52:32.736Z,1648
2016-07-11T17:53:33.732Z,1628
2016-07-11T17:54:32.596Z,1604
2016-07-11T17:55:32.942Z,1584
2016-07-11T17:56:32.999Z,1564
2016-07-11T17:57:32.830Z,1544
2016-07-11T17:58:33.501Z,1524
2016-07-11T17:59:33.192Z,1504
2016-07-11T18:00:32.972Z,1480
2016-07-11T18:01:32.996Z,1460
2016-07-11T18:02:32.570Z,1432
2016-07-11T18:03:32.864Z,1412
2016-07-11T18:04:33.003Z,1388
2016-07-11T18:05:33.776Z,1364
2016-07-11T18:06:34.529Z,1340
2016-07-11T18:07:32.998Z,1320
2016-07-11T18:08:33.099Z,1300
2016-07-11T18:09:32.659Z,1280
2016-07-11T18:10:32.982Z,1256
2016-07-11T18:11:33.309Z,1232
2016-07-11T18:12:33.187Z,1208
2016-07-11T18:13:33.886Z,1184
2016-07-11T18:14:33.079Z,1156
2016-07-11T18:15:41.766Z,1128
2016-07-11T18:16:39.834Z,1108
2016-07-11T18:17:34.798Z,1088
2016-07-11T18:18:38.019Z,1064
2016-07-11T18:19:34.039Z,1040
2016-07-11T18:20:35.115Z,1016
2016-07-11T18:21:35.104Z,988
2016-07-11T18:22:34.000Z,968
2016-07-11T18:23:33.035Z,940
2016-07-11T18:24:33.135Z,912
2016-07-11T18:25:33.062Z,888
2016-07-11T18:26:34.452Z,856
2016-07-11T18:27:33.997Z,832
2016-07-11T18:28:33.161Z,804
2016-07-11T18:29:34.702Z,776
2016-07-11T18:30:32.973Z,748
2016-07-11T18:31:34.666Z,720
2016-07-11T18:32:32.579Z,696
2016-07-11T18:33:34.295Z,672
2016-07-11T18:34:33.903Z,652
2016-07-11T18:35:32.731Z,628
2016-07-11T18:36:37.058Z,600
2016-07-11T18:37:32.726Z,576
2016-07-11T18:38:33.388Z,548
2016-07-11T18:39:34.450Z,520
2016-07-11T18:40:33.876Z,496
2016-07-11T18:41:32.728Z,472
2016-07-11T18:42:33.673Z,448
2016-07-11T18:43:32.717Z,424
2016-07-11T18:44:33.396Z,396
2016-07-11T18:45:32.783Z,376
2016-07-11T18:46:32.804Z,352
2016-07-11T18:47:32.792Z,328
2016-07-11T18:48:32.758Z,304
2016-07-11T18:49:32.838Z,284
2016-07-11T18:50:32.989Z,264
2016-07-11T18:51:32.802Z,248
2016-07-11T18:52:32.879Z,224
2016-07-11T18:53:33.633Z,208
2016-07-11T18:54:32.864Z,188
2016-07-11T18:55:32.875Z,172
2016-07-11T18:56:33.611Z,156
2016-07-11T18:57:32.892Z,144
2016-07-11T18:58:32.902Z,128
2016-07-11T18:59:32.922Z,116
2016-07-11T19:00:33.093Z,104
2016-07-11T19:01:32.938Z,92
2016-07-11T19:02:32.943Z,84
2016-07-11T19:03:32.914Z,76
2016-07-11T19:04:32.998Z,64
2016-07-11T19:05:33.019Z,56
2016-07-11T19:06:33.047Z,48
2016-07-11T19:07:33.718Z,44
2016-07-11T19:08:33.779Z,36
2016-07-11T19:09:32.917Z,28
2016-07-11T19:10:32.930Z,28
2016-07-11T19:11:33.019Z,24
2016-07-11T19:12:34.549Z,20
2016-07-11T19:13:33.514Z,16
2016-07-11T19:14:33.804Z,12
2016-07-11T19:15:33.136Z,12
2016-07-11T19:16:33.858Z,12
2016-07-11T19:17:33.063Z,12
2016-07-11T19:18:32.892Z,8
2016-07-11T19:19:33.106Z,8
2016-07-11T19:20:33.099Z,4
2016-07-11T19:21:33.132Z,4
2016-07-11T19:22:33.159Z,8
2016-07-11T19:23:33.908Z,4
2016-07-11T19:24:33.943Z,4
2016-07-11T19:25:33.347Z,4
2016-07-11T19:26:33.156Z,0
2016-07-11T19:27:33.209Z,0
2016-07-11T19:28:33.940Z,4
2016-07-11T19:29:33.158Z,4
2016-07-11T19:30:33.259Z,4
2016-07-11T19:31:33.289Z,4
2016-07-11T19:32:33.287Z,4
2016-07-11T19:33:33.284Z,4
2016-07-11T19:34:33.291Z,4
2016-07-11T19:35:33.268Z,4
2016-07-11T19:36:33.323Z,4
2016-07-11T19:37:33.312Z,4
2016-07-11T19:38:35.517Z,4
2016-07-11T19:39:33.365Z,4
2016-07-11T19:40:33.367Z,0
2016-07-11T19:41:33.335Z,0
2016-07-11T19:42:33.407Z,0
2016-07-11T19:43:33.348Z,0
2016-07-11T19:44:34.108Z,0
2016-07-11T19:45:34.163Z,0
2016-07-11T19:46:33.455Z,0
2016-07-11T19:47:33.428Z,0
2016-07-11T19:48:34.162Z,0
2016-07-11T19:49:33.458Z,0
2016-07-11T19:50:33.471Z,0
2016-07-11T19:51:33.471Z,0
2016-07-11T19:52:33.525Z,0
2016-07-11T19:53:33.423Z,0
2016-07-11T19:54:34.175Z,0
2016-07-11T19:55:33.478Z,0
2016-07-11T19:56:33.522Z,0
2016-07-11T19:57:33.465Z,0
2016-07-11T19:58:33.537Z,0
2016-07-11T19:59:33.488Z,0
2016-07-11T20:00:33.547Z,0
2016-07-11T20:01:33.688Z,0
2016-07-11T20:02:34.302Z,0
2016-07-11T20:03:34.340Z,0
2016-07-11T20:04:33.548Z,0
2016-07-11T20:05:33.571Z,0
2016-07-11T20:06:34.321Z,0
2016-07-11T20:07:33.596Z,0
2016-07-11T20:08:33.597Z,0
2016-07-11T20:09:33.537Z,0
2016-07-11T20:10:34.396Z,0
2016-07-11T20:11:33.678Z,0
2016-07-11T20:12:34.403Z,0
2016-07-11T20:13:34.414Z,0
2016-07-11T20:14:33.712Z,0
2016-07-11T20:15:34.403Z,0
2016-07-11T20:16:33.682Z,0
2016-07-11T20:17:33.719Z,0
2016-07-11T20:18:33.706Z,0
2016-07-11T20:19:33.753Z,0
2016-07-11T20:20:33.766Z,0
2016-07-11T20:21:33.742Z,0
2016-07-11T20:22:33.772Z,0
2016-07-11T20:23:33.823Z,0
2016-07-11T20:24:33.711Z,0
2016-07-11T20:25:33.918Z,0
2016-07-11T20:26:33.811Z,0
2016-07-11T20:27:34.179Z,0
2016-07-11T20:28:33.846Z,0
2016-07-11T20:29:34.537Z,0
2016-07-11T20:30:33.822Z,0
2016-07-11T20:31:33.804Z,0
2016-07-11T20:32:35.375Z,0
2016-07-11T20:33:34.601Z,0
2016-07-11T20:34:33.866Z,0
2016-07-11T20:35:33.756Z,0
2016-07-11T20:36:33.884Z,0
2016-07-11T20:37:33.874Z,0
2016-07-11T20:38:33.902Z,0
2016-07-11T20:39:33.910Z,0
2016-07-11T20:40:34.691Z,0
2016-07-11T20:41:33.992Z,0
2016-07-11T20:42:33.973Z,0
2016-07-11T20:43:34.697Z,0
2016-07-11T20:44:34.001Z,0
2016-07-11T20:45:34.753Z,0
2016-07-11T20:46:34.705Z,0
2016-07-11T20:47:33.992Z,0
2016-07-11T20:48:34.023Z,0
2016-07-11T20:49:34.010Z,0
2016-07-11T20:50:33.971Z,0
2016-07-11T20:51:34.064Z,0
2016-07-11T20:52:34.462Z,0
2016-07-11T20:53:34.186Z,0
2016-07-11T20:54:34.836Z,0
2016-07-11T20:55:34.847Z,0
2016-07-11T20:56:34.142Z,0
2016-07-11T20:57:34.237Z,0
2016-07-11T20:58:34.196Z,0
2016-07-11T20:59:34.157Z,0
2016-07-11T21:00:34.872Z,0
2016-07-11T21:01:34.192Z,0
2016-07-11T21:02:34.147Z,0
2016-07-11T21:03:34.909Z,0
2016-07-11T21:04:34.227Z,0
2016-07-11T21:05:34.239Z,0
2016-07-11T21:06:34.343Z,0
2016-07-11T21:07:34.306Z,0
2016-07-11T21:08:34.238Z,0
2016-07-11T21:09:34.996Z,0
2016-07-11T21:10:38.084Z,0
